Hlavní strana
METAR-TAF:

METAR-TAF

Letiště :

Meknes, Maroko

zeměpisná šířka: 33-53N, zeměpisná délka: 005-32W, výška: 576 m

Aktuální stav počasí

Zpráva byla vytvořena před 32 minutami, v 23:00 UTC
Jižní vítr 7 kt, proměnlivý mezi jihovýchodním a jihojihozápadním
Teplota 10°C
Vlhkost vzduchu 71%
Tlak 1025 hPa
Viditelnost: 5000 m

METAR: GMFM 242300Z 17007KT 140V200 5000 NSC 10/05 Q1025 NOSIG

Čas: 00:32 (23:32 UTC)

Předpověď počasí

Zpráva byla vytvořena před 6 hodinami a 32 minutami, v 17:00 UTC
Předpověď platná od 24 v 18 UTC do 25 v 24 UTC
Východní vítr 7 kt
Viditelnost: 5000 m
Změna
od 25 v 14 UTC do 25 v 18 UTC
Polojasno ve výšce 2000 ft
Polojasno ve výšce 10000 ft
Dočasný
od 25 v 20 UTC do 25 v 24 UTC
Polojasno ve výšce 1000 ft
Oblačno až skoro zataženo ve výšce 2000 ft
slabý déšť

TAF: GMFM 241700Z 2418/2524 08007KT 5000 NSC BECMG 2514/2518 SCT020 SCT100 TEMPO 2520/2524 -RA SCT010 BKN020

Stav a předpovědi počasí z více než 4 000 letišť (zprávy METAR a TAF).

Červené a žluté tečky na mapě představují dostupné meteorologické stanice.

Když kurzor umístíte na tečku, zobrazí se název stanice.

Pak kliknutím zobrazíte stav a předpověď počasí.

Chcete-li změnit mapu, kliknutím na zelené tlačítko se znaménkem +mapu přiblížíte, kliknutím na zelené tlačítko se znaménkem – mapu oddálíte a kliknutím na zelené šipky přejdete na sousední mapy.


METAR-TAF: